Sonic Adventure (DX): Time Rankings

Records: Times | Rings | Scores | Races | Bosses | Freestyle
Leaders: Times | Rings | Scores | Races | Bosses | Freestyle | Overall
Rank Player Percent Points Date
1 Sonicspeedruner 98.9% 56 08-27-15
2 Gamepro011 98.5% 75 08-27-15
3 Jawzun 95.8% 222 08-27-15
4 Dashjump 93.4% 346 08-27-15
5 DarkPolarNight 92.8% 379 08-27-15
6 F-Man 92.8% 381 08-27-15
7 THC98 91.7% 435 08-27-15
8 ike6252 90.0% 526 08-27-15
9 Avento128bits 89.8% 539 08-27-15
10 francisco 89.5% 554 08-27-15
11 DarkspinesSonic 89.1% 575 08-27-15
12 Marth 89.0% 581 08-27-15
13 frankoredstrato 87.7% 649 08-27-15
14 drminus 85.0% 792 08-27-15
15 Paragod 84.7% 811 08-27-15
16 HyperSonic7701 84.6% 815 08-27-15
17 chainchumper 84.4% 824 08-27-15
18 InferSaime 81.6% 975 08-27-15
19 TheRealShadnic 81.5% 980 08-27-15
20 Stefan 79.9% 1061 08-27-15
21 Redd 79.5% 1082 08-27-15
22 PfoSonic 79.3% 1095 08-27-15
23 Coolfansonic 77.7% 1181 08-27-15
24 bertin 77.6% 1184 08-27-15
25 yoshifan 77.1% 1211 08-27-15
26 xXMegaManXx 76.7% 1231 08-27-15
27 Dave Cramer 75.4% 1302 08-27-15
28 RPGnutter 74.8% 1331 08-27-15
29 Cybrax 73.4% 1410 08-27-15
30 sonicam 73.3% 1415 08-27-15
31 Ring Rush 70.4% 1567 08-27-15
32 mike89 69.6% 1607 08-27-15
33 NintenDan 69.4% 1622 08-27-15
34 a_moustache 67.8% 1705 08-27-15
35 SkyLights 65.4% 1830 08-27-15
36 Combo 64.0% 1906 08-27-15
37 SADXTryHard 61.9% 2020 08-27-15
38 P1 Pause 61.2% 2055 08-27-15
39 Nimrod 60.3% 2102 08-27-15
40 Groudon199 59.2% 2159 08-27-15
41 Game_Complete 59.0% 2169 08-27-15
42 AxlThunder 58.5% 2200 08-27-15
43 Dawid8404 58.4% 2201 08-27-15
43 Shadow Jacky 58.4% 2201 08-27-15
45 VMU Player Banned 57.6% 2246 08-27-15
46 Thorn 57.2% 2269 08-27-15
47 The Knuckles Chao 56.0% 2329 08-27-15
48 SB737 55.9% 2334 08-27-15
49 Parax 55.8% 2343 08-27-15
50 Chao_Fan 55.6% 2351 08-27-15
51 SadisticMystic 55.5% 2356 08-27-15
52 KinkyCadence 54.9% 2386 08-27-15
53 LittleBigness 54.9% 2388 08-27-15
54 mauserman 54.8% 2396 08-27-15
55 Mastakirby 54.7% 2401 08-27-15
55 Psyknux 54.7% 2401 08-27-15
57 OmegaDJ 54.6% 2402 08-27-15
58 magnum12 53.8% 2449 08-27-15
59 Auriman1 53.7% 2452 08-27-15
60 Turbos 53.2% 2477 08-27-15
61 GerbilSoft 52.8% 2502 08-27-15
62 GreatStar 52.7% 2505 08-27-15
63 Webber3000 51.9% 2545 08-27-15
64 Hipertails12 51.5% 2571 08-27-15
65 James_Bertolli 48.6% 2720 08-27-15
66 Cream147 48.2% 2742 08-27-15
67 Skylace 47.8% 2767 08-27-15
68 Diamond 47.7% 2770 08-27-15
69 welldooder64 47.5% 2780 08-27-15
70 Omega Rafael Santos 47.5% 2782 08-27-15
71 Quartz 47.2% 2795 08-27-15
72 Psymar 47.1% 2802 08-27-15
73 SonicWinDX 46.7% 2823 08-27-15
74 teamblackarms 45.8% 2870 08-27-15
75 buddychaos0415 45.1% 2906 08-27-15
76 SilverSonic 44.7% 2931 08-27-15
77 Andrea Ritsu 44.1% 2960 08-27-15
78 itsPersonnal 44.0% 2965 08-27-15
79 WeegeeZV 44.0% 2966 08-27-15
80 SilvertheAlmighty 43.9% 2974 08-27-15
81 metanightmare22 42.9% 3023 08-27-15
82 lordmetalsonic 40.8% 3136 08-27-15
83 Arch 40.4% 3155 08-27-15
84 Termon 40.2% 3170 08-27-15
85 videogamemaster777 39.5% 3203 08-27-15
86 supersonicfan 39.2% 3219 08-27-15
87 Kanimayo_Jp 38.9% 3236 08-27-15
88 Drakodan 38.8% 3240 08-27-15
89 LilZero 38.3% 3270 08-27-15
89 paulie9990 38.3% 3270 08-27-15
91 FuzZerd 38.0% 3285 08-27-15
92 Don 37.4% 3318 08-27-15
93 eggFL 37.3% 3323 08-27-15
94 Fr3nZy 35.9% 3396 08-27-15
95 Siavash Tazari 35.8% 3403 08-27-15
96 Cod4Scopes 35.0% 3444 08-27-15
97 f0rever_zer0 34.7% 3460 08-27-15
98 Austinf 34.1% 3489 08-27-15
99 Cyan Ryan 34.1% 3492 08-27-15
100 supersonic465 33.9% 3503 08-27-15
101 LinksDarkArrows 33.7% 3512 08-27-15
102 Therio 33.7% 3515 08-27-15
103 danieldude 33.1% 3542 08-27-15
104 elecmouse101 32.8% 3559 08-27-15
105 Staf 32.7% 3567 08-27-15
106 MiStEr_ShAoLiN 32.4% 3584 08-27-15
107 BrokenArthritis 32.2% 3590 08-27-15
108 Twilisailor 31.9% 3610 08-27-15
109 videogamer1014 31.7% 3618 08-27-15
110 Xia 31.2% 3646 08-27-15
111 welshmoose05 30.7% 3669 08-27-15
112 OddCook 29.9% 3714 08-27-15
113 Mcshuggets 29.7% 3723 08-27-15
114 The Great Lord Mick 29.6% 3729 08-27-15
115 Maxinfamily 29.4% 3743 08-27-15
116 Aitamen 29.2% 3752 08-27-15
117 joecoolgames 29.2% 3753 08-27-15
118 Matt_TY 28.9% 3766 08-27-15
119 imazor017 28.8% 3771 08-27-15
120 dabestgamer 28.6% 3782 08-27-15
121 SuperSonic101 27.6% 3835 08-27-15
122 Hunters13 27.3% 3851 08-27-15
123 Shadowthegreat 27.3% 3854 08-27-15
124 superjupi 27.2% 3855 08-27-15
125 Rolken 26.7% 3884 08-27-15
126 SaviourDC 26.3% 3903 08-27-15
127 iarebored 26.3% 3904 08-27-15
128 sonamyfan666 26.1% 3916 08-27-15
129 Spinballwizard 25.8% 3932 08-27-15
130 SonicKnuckles 25.8% 3934 08-27-15
131 EngiNerd 24.8% 3987 08-27-15
132 adf 24.7% 3990 08-27-15
133 Megaman EXE565 24.0% 4026 08-27-15
134 The T 23.8% 4040 08-27-15
135 Platformer 23.1% 4075 08-27-15
136 Pokemonmaster888 23.1% 4077 08-27-15
137 Sonic Singularity 23.0% 4078 08-27-15
138 SeaWolf 23.0% 4081 08-27-15
139 Swift Hobo 22.5% 4109 08-27-15
139 timpkmn89 22.5% 4109 08-27-15
141 ethmar 22.2% 4122 08-27-15
142 Rickyman48 22.0% 4133 08-27-15
143 Sondow 21.7% 4148 08-27-15
144 FoxBoy 21.3% 4170 08-27-15
145 KitsuneYamaro 21.0% 4187 08-27-15
145 TFEC Headshot 21.0% 4187 08-27-15
147 Jerzia 20.9% 4193 08-27-15
148 Kogen Player Banned 20.4% 4218 08-27-15
149 Starlight Sable 19.9% 4245 08-27-15
150 IsisDazs 19.5% 4267 08-27-15
151 HyperSonic64 19.1% 4287 08-27-15
152 crazy1993 18.8% 4302 08-27-15
153 andres430 18.5% 4316 08-27-15
154 SonicU260 17.4% 4379 08-27-15
155 SonicAD 17.3% 4384 08-27-15
156 sonicd5 17.2% 4387 08-27-15
157 MPit08 17.1% 4392 08-27-15
158 iSonicKid2K 16.5% 4425 08-27-15
159 dShadow 16.4% 4429 08-27-15
160 Miles9999 16.0% 4450 08-27-15
161 Chawkk 15.9% 4457 08-27-15
162 BigAL49 15.8% 4459 08-27-15
163 Cutiefox 15.8% 4461 08-27-15
164 Monkeh 15.7% 4469 08-27-15
165 DaDude 15.3% 4490 08-27-15
166 Drflash55 14.9% 4508 08-27-15
167 Yish 14.7% 4519 08-27-15
168 Bass 14.4% 4535 08-27-15
169 neaolas 14.3% 4540 08-27-15
170 Cruizer 14.2% 4546 08-27-15
171 UninspiredUsername 14.2% 4547 08-27-15
172 superiorsonic 14.1% 4551 08-27-15
173 zapp 14.0% 4555 08-27-15
174 gamefreak1292 13.8% 4566 08-27-15
175 Cooljay 13.1% 4607 08-27-15
176 Chaos_Overlord 12.8% 4621 08-27-15
177 Valfore 12.3% 4647 08-27-15
178 GarnetPrincess 12.0% 4665 08-27-15
178 ShinigamiMachine 12.0% 4665 08-27-15
180 soniccoloursunleashed 11.7% 4681 08-27-15
181 Sonicsuperstar1 11.5% 4691 08-27-15
182 FocusSight64 11.0% 4717 08-27-15
183 Werey 10.9% 4722 08-27-15
184 booo95 10.7% 4732 08-27-15
185 SirTobbii 10.6% 4735 08-27-15
186 Mo Player Banned 10.5% 4740 08-27-15
187 sonicspeed 10.4% 4749 08-27-15
188 Venick409 9.9% 4775 08-27-15
189 Sithwarrior26 9.5% 4796 08-27-15
190 ingx24 9.1% 4815 08-27-15
191 CyberShadow 9.0% 4822 08-27-15
192 Fozer 8.6% 4842 08-27-15
193 Colomb_30 8.3% 4857 08-27-15
194 Regano1000 8.3% 4858 08-27-15
195 1stKirbyever 8.0% 4875 08-27-15
196 Brian_pso 7.7% 4891 08-27-15
197 nuckrieg 7.6% 4894 08-27-15
198 douglas 7.4% 4908 08-27-15
198 TakaRikka 7.4% 4908 08-27-15
200 Th4tN1nj4Turtl3 7.4% 4909 08-27-15
201 Zip 7.1% 4921 08-27-15
202 nman36 7.0% 4926 08-27-15
203 Mariosonic15 7.0% 4929 08-27-15
204 wheatrich 6.9% 4935 08-27-15
205 SonataSpinDash 6.9% 4936 08-27-15
206 MStitomix 6.7% 4944 08-27-15
207 HermitHelmet 6.6% 4951 08-27-15
207 ieatatsonic 6.6% 4951 08-27-15
209 niscool 6.4% 4958 08-27-15
210 Got4n 6.4% 4962 08-27-15
211 Cort_pso 6.3% 4963 08-27-15
212 Triseena 6.2% 4970 08-27-15
213 Jose_15 6.1% 4977 08-27-15
214 Badlex727 6.0% 4980 08-27-15
215 Artie 5.8% 4990 08-27-15
216 SuperSonicfan9595 5.8% 4993 08-27-15
217 BlankTH 5.7% 4995 08-27-15
218 HHNNBBHHN 5.6% 5005 08-27-15
219 Ace747 5.5% 5008 08-27-15
220 Richied 5.3% 5017 08-27-15
221 Paixii 5.2% 5023 08-27-15
222 FSSRandomvids 4.9% 5038 08-27-15
223 BallzeH 4.9% 5040 08-27-15
223 slade23 4.9% 5040 08-27-15
225 ArcticDragon 4.8% 5043 08-27-15
226 Jamixesa 4.8% 5046 08-27-15
226 PsyBorg 4.8% 5046 08-27-15
228 Mankster101 4.7% 5048 08-27-15
229 BecauseWarAnvil 4.7% 5050 08-27-15
230 Crydio 4.6% 5055 08-27-15
231 Nickson98 4.6% 5058 08-27-15
232 TheUltraBlur 4.4% 5065 08-27-15
233 ReuelBrony 4.4% 5068 08-27-15
234 stanski 4.3% 5074 08-27-15
235 MarewBFN 4.2% 5077 08-27-15
236 tal39h 4.0% 5087 08-27-15
237 p0ker 3.9% 5091 08-27-15
238 Blue Infamy 3.9% 5092 08-27-15
238 knuckles_sonic8 3.9% 5092 08-27-15
240 ErrortheCucco 3.7% 5102 08-27-15
241 Rikum22 3.7% 5105 08-27-15
242 sonic1001 3.5% 5113 08-27-15
243 TheChaosEmeraIds 3.5% 5114 08-27-15
244 AJSIV 3.4% 5119 08-27-15
245 syco1098 3.4% 5120 08-27-15
246 Sonic the Hedgehod16 3.3% 5123 08-27-15
247 sonicfan9 3.3% 5126 08-27-15
248 Calfd 3.2% 5131 08-27-15
249 themachoman202 2.9% 5145 08-27-15
250 MK 2.8% 5149 08-27-15
251 Fivavoa 2.8% 5153 08-27-15
252 BlackArmsShadow 2.7% 5154 08-27-15
253 Mr. Jones 2.7% 5155 08-27-15
254 djmat 2.7% 5156 08-27-15
255 arcfx1985 2.7% 5157 08-27-15
256 ptorflaxendrosis 2.7% 5158 08-27-15
257 FlandreScarlet9999vr 2.6% 5162 08-27-15
257 Sonique Hedgehog 2.6% 5162 08-27-15
259 Zeldocto 2.5% 5167 08-27-15
260 KaM Mark MaK 2.4% 5172 08-27-15
261 BeeAwwb 2.4% 5173 08-27-15
262 ShadouZaHejjihoggu 2.3% 5178 08-27-15
263 darkersupershadic 2.1% 5187 08-27-15
263 darkstarblaze 2.1% 5187 08-27-15
265 SpiritDragon1995 2.1% 5188 08-27-15
266 sonic29887 2.1% 5190 08-27-15
267 Grady219 2.0% 5193 08-27-15
267 Sarger001 2.0% 5193 08-27-15
269 Jawaah 1.9% 5196 08-27-15
270 shadowblast63 Player Banned 1.9% 5198 08-27-15
271 Antek 1.8% 5202 08-27-15
272 Klaus 1.8% 5204 08-27-15
273 BioShadow 1.7% 5210 08-27-15
274 SkyBon 1.4% 5224 08-27-15
275 Shanekilz 1.4% 5225 08-27-15
276 isaihtb11 1.3% 5229 08-27-15
277 OhNoes! 1.3% 5230 08-27-15
278 zaktu40 1.3% 5232 08-27-15
279 S-MS32X-S 1.2% 5234 08-27-15
280 gaara1234 1.2% 5235 08-27-15
281 MastaToken 1.1% 5242 08-27-15
282 Mister_Slick 1.0% 5245 08-27-15
283 Sonic06Fan 1.0% 5248 08-27-15
284 Rush Hero 0.9% 5250 08-27-15
285 SonicMega167 0.9% 5254 08-27-15
286 oTaiIilLsS 0.8% 5255 08-27-15
287 gamed00d 0.8% 5257 08-27-15
287 SilverK 0.8% 5257 08-27-15
289 Egor305 0.6% 5265 08-27-15
290 Burningskull123 0.5% 5273 08-27-15
291 Heroes_Hater 0.5% 5274 08-27-15
292 Sonicontherun 0.3% 5282 08-27-15
293 antiwwe 0.2% 5288 08-27-15
294 Iwannabelink 0.2% 5291 08-27-15
295 Genuine Hedgehog 0.1% 5292 08-27-15
296 dragondragon18 0.1% 5295 08-27-15
297 SonicK100 0.1% 5296 08-27-15
298 Tyrouble 0.0% 5301 08-27-15
299 LancexExWx 0.0% 5302 08-27-15
299 neji_hyuuga 0.0% 5302 08-27-15
299 Over 0.0% 5302 08-27-15
299 sdj6707 Player Banned 0.0% 5302 08-27-15
299 Tran Sonic Fan Player Banned 0.0% 5302 08-27-15

This page is using the New Data Table System. [FUTURE]

Game ID: 3 | Category ID: 1
Hits: 7,472 | Hits This Month: 44 | DB Calls: 24 | Mem Usage: 5.45 MB | Time: 0.29s | Printable

The Sonic Center v3.9
Copyright 2003-2011 by The Sonic Center Team.